sensor_id;sensor_type;location;lat;lon;timestamp;P1;durP1;ratioP1;P2;durP2;ratioP2
14191;SDS011;7177;48.572;7.838;2023-03-31T00:01:10;8.33;;;2.47;;
14191;SDS011;7177;48.572;7.838;2023-03-31T00:03:36;10.00;;;2.50;;
14191;SDS011;7177;48.572;7.838;2023-03-31T00:06:08;8.40;;;2.83;;
14191;SDS011;7177;48.572;7.838;2023-03-31T00:08:36;8.37;;;2.50;;
14191;SDS011;7177;48.572;7.838;2023-03-31T00:11:04;7.30;;;2.53;;
14191;SDS011;7177;48.572;7.838;2023-03-31T00:13:31;7.60;;;2.90;;
14191;SDS011;7177;48.572;7.838;2023-03-31T00:16:01;7.27;;;2.80;;
14191;SDS011;7177;48.572;7.838;2023-03-31T00:18:28;8.57;;;3.10;;
14191;SDS011;7177;48.572;7.838;2023-03-31T00:20:54;4.73;;;2.40;;
14191;SDS011;7177;48.572;7.838;2023-03-31T00:23:23;7.37;;;3.07;;
14191;SDS011;7177;48.572;7.838;2023-03-31T00:25:52;6.17;;;2.93;;
14191;SDS011;7177;48.572;7.838;2023-03-31T00:28:18;10.87;;;3.03;;
14191;SDS011;7177;48.572;7.838;2023-03-31T00:30:44;7.80;;;2.70;;
14191;SDS011;7177;48.572;7.838;2023-03-31T00:33:11;10.50;;;3.27;;
14191;SDS011;7177;48.572;7.838;2023-03-31T00:35:37;8.47;;;2.70;;
14191;SDS011;7177;48.572;7.838;2023-03-31T00:38:03;6.47;;;3.07;;
14191;SDS011;7177;48.572;7.838;2023-03-31T00:40:29;4.27;;;2.80;;
14191;SDS011;7177;48.572;7.838;2023-03-31T00:42:55;11.80;;;3.53;;
14191;SDS011;7177;48.572;7.838;2023-03-31T00:45:23;7.37;;;2.90;;
14191;SDS011;7177;48.572;7.838;2023-03-31T00:47:52;8.17;;;3.07;;
14191;SDS011;7177;48.572;7.838;2023-03-31T00:50:28;7.03;;;2.50;;
14191;SDS011;7177;48.572;7.838;2023-03-31T00:53:07;9.20;;;2.70;;
14191;SDS011;7177;48.572;7.838;2023-03-31T00:55:46;6.87;;;2.83;;
14191;SDS011;7177;48.572;7.838;2023-03-31T00:58:16;9.33;;;3.33;;
14191;SDS011;7177;48.572;7.838;2023-03-31T01:00:44;7.30;;;2.83;;
14191;SDS011;7177;48.572;7.838;2023-03-31T01:03:12;8.33;;;3.17;;
14191;SDS011;7177;48.572;7.838;2023-03-31T01:05:42;7.97;;;3.30;;
14191;SDS011;7177;48.572;7.838;2023-03-31T01:08:11;9.67;;;3.67;;
14191;SDS011;7177;48.572;7.838;2023-03-31T01:10:40;8.10;;;3.17;;
14191;SDS011;7177;48.572;7.838;2023-03-31T01:13:10;6.87;;;3.03;;
14191;SDS011;7177;48.572;7.838;2023-03-31T01:15:38;7.97;;;2.77;;
14191;SDS011;7177;48.572;7.838;2023-03-31T01:18:06;6.83;;;2.80;;
14191;SDS011;7177;48.572;7.838;2023-03-31T01:23:30;6.60;;;3.13;;
14191;SDS011;7177;48.572;7.838;2023-03-31T01:37:18;11.20;;;3.60;;
14191;SDS011;7177;48.572;7.838;2023-03-31T01:48:34;8.27;;;3.10;;
14191;SDS011;7177;48.572;7.838;2023-03-31T01:51:18;9.40;;;3.40;;
14191;SDS011;7177;48.572;7.838;2023-03-31T01:54:14;10.67;;;3.77;;
14191;SDS011;7177;48.572;7.838;2023-03-31T01:56:45;8.67;;;3.43;;
14191;SDS011;7177;48.572;7.838;2023-03-31T01:59:27;9.13;;;3.50;;
14191;SDS011;7177;48.572;7.838;2023-03-31T02:02:00;9.63;;;3.70;;
14191;SDS011;7177;48.572;7.838;2023-03-31T02:04:35;7.33;;;3.40;;
14191;SDS011;7177;48.572;7.838;2023-03-31T02:07:19;8.83;;;3.63;;
14191;SDS011;7177;48.572;7.838;2023-03-31T02:09:52;8.80;;;4.03;;
14191;SDS011;7177;48.572;7.838;2023-03-31T02:12:23;10.53;;;3.77;;
14191;SDS011;7177;48.572;7.838;2023-03-31T02:14:51;8.37;;;3.50;;
14191;SDS011;7177;48.572;7.838;2023-03-31T02:17:20;12.20;;;3.80;;
14191;SDS011;7177;48.572;7.838;2023-03-31T02:19:54;12.13;;;3.90;;
14191;SDS011;7177;48.572;7.838;2023-03-31T02:22:22;13.53;;;4.10;;
14191;SDS011;7177;48.572;7.838;2023-03-31T02:24:49;8.87;;;4.13;;
14191;SDS011;7177;48.572;7.838;2023-03-31T02:27:24;7.47;;;3.70;;
14191;SDS011;7177;48.572;7.838;2023-03-31T02:29:59;11.53;;;4.30;;
14191;SDS011;7177;48.572;7.838;2023-03-31T02:34:56;8.63;;;3.83;;
14191;SDS011;7177;48.572;7.838;2023-03-31T02:37:22;9.23;;;4.00;;
14191;SDS011;7177;48.572;7.838;2023-03-31T02:39:48;9.60;;;4.33;;
14191;SDS011;7177;48.572;7.838;2023-03-31T02:42:17;10.13;;;3.90;;
14191;SDS011;7177;48.572;7.838;2023-03-31T02:44:43;9.30;;;3.83;;
14191;SDS011;7177;48.572;7.838;2023-03-31T02:47:10;7.93;;;3.67;;
14191;SDS011;7177;48.572;7.838;2023-03-31T02:49:39;9.63;;;4.27;;
14191;SDS011;7177;48.572;7.838;2023-03-31T02:52:19;9.77;;;4.07;;
14191;SDS011;7177;48.572;7.838;2023-03-31T03:00:29;8.63;;;4.40;;
14191;SDS011;7177;48.572;7.838;2023-03-31T03:17:08;9.40;;;4.00;;
14191;SDS011;7177;48.572;7.838;2023-03-31T03:19:39;8.93;;;4.27;;
14191;SDS011;7177;48.572;7.838;2023-03-31T03:22:06;6.70;;;4.00;;
14191;SDS011;7177;48.572;7.838;2023-03-31T03:24:31;12.27;;;4.90;;
14191;SDS011;7177;48.572;7.838;2023-03-31T03:26:58;12.03;;;5.10;;
14191;SDS011;7177;48.572;7.838;2023-03-31T03:29:24;7.83;;;4.47;;
14191;SDS011;7177;48.572;7.838;2023-03-31T03:31:51;10.10;;;4.17;;
14191;SDS011;7177;48.572;7.838;2023-03-31T03:34:16;9.77;;;4.73;;
14191;SDS011;7177;48.572;7.838;2023-03-31T03:36:44;8.00;;;4.33;;
14191;SDS011;7177;48.572;7.838;2023-03-31T03:39:10;8.30;;;4.43;;
14191;SDS011;7177;48.572;7.838;2023-03-31T03:41:36;9.50;;;4.03;;
14191;SDS011;7177;48.572;7.838;2023-03-31T03:44:02;12.80;;;4.67;;
14191;SDS011;7177;48.572;7.838;2023-03-31T03:46:27;13.03;;;3.80;;
14191;SDS011;7177;48.572;7.838;2023-03-31T03:48:53;6.90;;;4.47;;
14191;SDS011;7177;48.572;7.838;2023-03-31T03:51:19;9.37;;;4.40;;
14191;SDS011;7177;48.572;7.838;2023-03-31T03:53:45;11.13;;;4.73;;
14191;SDS011;7177;48.572;7.838;2023-03-31T03:56:11;8.43;;;4.67;;
14191;SDS011;7177;48.572;7.838;2023-03-31T03:58:37;9.57;;;4.70;;
14191;SDS011;7177;48.572;7.838;2023-03-31T04:01:02;8.50;;;4.97;;
14191;SDS011;7177;48.572;7.838;2023-03-31T04:03:28;9.50;;;4.90;;
14191;SDS011;7177;48.572;7.838;2023-03-31T04:05:55;9.23;;;4.80;;
14191;SDS011;7177;48.572;7.838;2023-03-31T04:08:20;10.43;;;5.13;;
14191;SDS011;7177;48.572;7.838;2023-03-31T04:10:46;6.40;;;4.97;;
14191;SDS011;7177;48.572;7.838;2023-03-31T04:13:13;13.70;;;5.30;;
14191;SDS011;7177;48.572;7.838;2023-03-31T04:15:42;13.40;;;5.30;;
14191;SDS011;7177;48.572;7.838;2023-03-31T04:18:09;11.57;;;5.60;;
14191;SDS011;7177;48.572;7.838;2023-03-31T04:20:42;13.90;;;5.70;;
14191;SDS011;7177;48.572;7.838;2023-03-31T04:23:08;14.00;;;5.80;;
14191;SDS011;7177;48.572;7.838;2023-03-31T04:25:34;17.70;;;6.70;;
14191;SDS011;7177;48.572;7.838;2023-03-31T04:28:03;12.23;;;6.33;;
14191;SDS011;7177;48.572;7.838;2023-03-31T04:30:31;12.70;;;6.10;;
14191;SDS011;7177;48.572;7.838;2023-03-31T04:32:57;11.87;;;6.53;;
14191;SDS011;7177;48.572;7.838;2023-03-31T04:35:26;14.03;;;6.40;;
14191;SDS011;7177;48.572;7.838;2023-03-31T04:38:06;11.10;;;5.63;;
14191;SDS011;7177;48.572;7.838;2023-03-31T04:40:33;10.47;;;5.77;;
14191;SDS011;7177;48.572;7.838;2023-03-31T04:42:59;12.20;;;6.10;;
14191;SDS011;7177;48.572;7.838;2023-03-31T04:45:25;9.27;;;5.00;;
14191;SDS011;7177;48.572;7.838;2023-03-31T04:47:50;10.90;;;5.93;;
14191;SDS011;7177;48.572;7.838;2023-03-31T04:50:16;16.23;;;6.57;;
14191;SDS011;7177;48.572;7.838;2023-03-31T04:52:42;13.77;;;8.07;;
14191;SDS011;7177;48.572;7.838;2023-03-31T04:55:07;12.63;;;6.47;;
14191;SDS011;7177;48.572;7.838;2023-03-31T04:57:33;14.33;;;6.87;;
14191;SDS011;7177;48.572;7.838;2023-03-31T04:59:59;17.10;;;7.63;;
14191;SDS011;7177;48.572;7.838;2023-03-31T05:02:24;16.50;;;7.10;;
14191;SDS011;7177;48.572;7.838;2023-03-31T05:04:50;14.70;;;7.80;;
14191;SDS011;7177;48.572;7.838;2023-03-31T05:07:16;18.40;;;7.87;;
14191;SDS011;7177;48.572;7.838;2023-03-31T05:09:43;14.23;;;7.17;;
14191;SDS011;7177;48.572;7.838;2023-03-31T05:12:08;15.67;;;8.23;;
14191;SDS011;7177;48.572;7.838;2023-03-31T05:14:34;17.87;;;7.50;;
14191;SDS011;7177;48.572;7.838;2023-03-31T05:16:59;21.17;;;8.07;;
14191;SDS011;7177;48.572;7.838;2023-03-31T05:19:25;15.77;;;8.10;;
14191;SDS011;7177;48.572;7.838;2023-03-31T05:21:51;13.90;;;7.70;;
14191;SDS011;7177;48.572;7.838;2023-03-31T05:24:17;16.00;;;8.37;;
14191;SDS011;7177;48.572;7.838;2023-03-31T05:26:43;16.57;;;7.30;;
14191;SDS011;7177;48.572;7.838;2023-03-31T05:29:13;10.17;;;6.83;;
14191;SDS011;7177;48.572;7.838;2023-03-31T05:31:40;21.27;;;8.43;;
14191;SDS011;7177;48.572;7.838;2023-03-31T05:34:06;20.73;;;7.60;;
14191;SDS011;7177;48.572;7.838;2023-03-31T05:36:31;18.07;;;7.97;;
14191;SDS011;7177;48.572;7.838;2023-03-31T05:38:57;16.67;;;7.87;;
14191;SDS011;7177;48.572;7.838;2023-03-31T05:41:22;17.97;;;7.77;;
14191;SDS011;7177;48.572;7.838;2023-03-31T05:43:48;23.87;;;8.47;;
14191;SDS011;7177;48.572;7.838;2023-03-31T05:46:14;18.57;;;8.30;;
14191;SDS011;7177;48.572;7.838;2023-03-31T05:48:40;17.30;;;8.00;;
14191;SDS011;7177;48.572;7.838;2023-03-31T05:51:05;17.70;;;8.47;;
14191;SDS011;7177;48.572;7.838;2023-03-31T05:53:31;17.83;;;9.63;;
14191;SDS011;7177;48.572;7.838;2023-03-31T05:55:58;16.60;;;8.57;;
14191;SDS011;7177;48.572;7.838;2023-03-31T05:58:28;16.03;;;9.43;;
14191;SDS011;7177;48.572;7.838;2023-03-31T06:01:07;17.47;;;9.07;;
14191;SDS011;7177;48.572;7.838;2023-03-31T06:03:35;23.33;;;9.27;;
14191;SDS011;7177;48.572;7.838;2023-03-31T06:06:02;21.10;;;9.27;;
14191;SDS011;7177;48.572;7.838;2023-03-31T06:08:29;16.17;;;8.00;;
14191;SDS011;7177;48.572;7.838;2023-03-31T06:10:56;18.97;;;8.77;;
14191;SDS011;7177;48.572;7.838;2023-03-31T06:13:21;17.13;;;8.40;;
14191;SDS011;7177;48.572;7.838;2023-03-31T06:15:54;14.60;;;8.30;;
14191;SDS011;7177;48.572;7.838;2023-03-31T06:18:20;17.07;;;8.07;;
14191;SDS011;7177;48.572;7.838;2023-03-31T06:20:46;13.27;;;7.03;;
14191;SDS011;7177;48.572;7.838;2023-03-31T06:23:12;15.27;;;7.17;;
14191;SDS011;7177;48.572;7.838;2023-03-31T06:25:37;20.47;;;7.00;;
14191;SDS011;7177;48.572;7.838;2023-03-31T06:28:03;16.00;;;6.50;;
14191;SDS011;7177;48.572;7.838;2023-03-31T06:30:30;12.60;;;6.20;;
14191;SDS011;7177;48.572;7.838;2023-03-31T06:32:56;11.93;;;5.47;;
14191;SDS011;7177;48.572;7.838;2023-03-31T06:35:21;10.23;;;4.10;;
14191;SDS011;7177;48.572;7.838;2023-03-31T06:37:47;5.87;;;3.43;;
14191;SDS011;7177;48.572;7.838;2023-03-31T06:40:12;5.10;;;3.43;;
14191;SDS011;7177;48.572;7.838;2023-03-31T06:42:38;6.63;;;3.10;;
14191;SDS011;7177;48.572;7.838;2023-03-31T06:45:03;9.80;;;3.30;;
14191;SDS011;7177;48.572;7.838;2023-03-31T06:47:29;4.47;;;2.83;;
14191;SDS011;7177;48.572;7.838;2023-03-31T06:49:55;9.53;;;2.60;;
14191;SDS011;7177;48.572;7.838;2023-03-31T06:52:20;5.83;;;2.77;;
14191;SDS011;7177;48.572;7.838;2023-03-31T06:54:46;5.33;;;2.30;;
14191;SDS011;7177;48.572;7.838;2023-03-31T06:57:11;4.47;;;2.60;;
14191;SDS011;7177;48.572;7.838;2023-03-31T06:59:37;6.57;;;2.57;;
14191;SDS011;7177;48.572;7.838;2023-03-31T07:02:03;6.20;;;3.10;;
14191;SDS011;7177;48.572;7.838;2023-03-31T07:04:28;3.40;;;2.40;;
14191;SDS011;7177;48.572;7.838;2023-03-31T07:06:55;6.43;;;2.77;;
14191;SDS011;7177;48.572;7.838;2023-03-31T07:09:22;5.13;;;2.33;;
14191;SDS011;7177;48.572;7.838;2023-03-31T07:11:48;5.60;;;2.70;;
14191;SDS011;7177;48.572;7.838;2023-03-31T07:14:14;3.53;;;1.90;;
14191;SDS011;7177;48.572;7.838;2023-03-31T07:16:39;5.60;;;2.27;;
14191;SDS011;7177;48.572;7.838;2023-03-31T07:19:05;4.77;;;2.13;;
14191;SDS011;7177;48.572;7.838;2023-03-31T07:21:31;7.20;;;2.30;;
14191;SDS011;7177;48.572;7.838;2023-03-31T07:23:57;4.93;;;2.87;;
14191;SDS011;7177;48.572;7.838;2023-03-31T07:26:23;5.57;;;2.53;;
14191;SDS011;7177;48.572;7.838;2023-03-31T07:28:51;6.97;;;3.07;;
14191;SDS011;7177;48.572;7.838;2023-03-31T07:31:16;6.27;;;3.07;;
14191;SDS011;7177;48.572;7.838;2023-03-31T07:33:42;5.50;;;3.37;;
14191;SDS011;7177;48.572;7.838;2023-03-31T07:36:08;5.27;;;3.00;;
14191;SDS011;7177;48.572;7.838;2023-03-31T07:38:34;7.37;;;3.00;;
14191;SDS011;7177;48.572;7.838;2023-03-31T07:41:00;4.27;;;2.93;;
14191;SDS011;7177;48.572;7.838;2023-03-31T07:43:25;6.60;;;3.37;;
14191;SDS011;7177;48.572;7.838;2023-03-31T07:45:51;4.77;;;2.50;;
14191;SDS011;7177;48.572;7.838;2023-03-31T07:48:17;3.90;;;2.40;;
14191;SDS011;7177;48.572;7.838;2023-03-31T07:50:42;5.17;;;2.60;;
14191;SDS011;7177;48.572;7.838;2023-03-31T07:53:08;6.50;;;2.43;;
14191;SDS011;7177;48.572;7.838;2023-03-31T07:55:33;5.87;;;2.43;;
14191;SDS011;7177;48.572;7.838;2023-03-31T07:57:59;3.97;;;2.10;;
14191;SDS011;7177;48.572;7.838;2023-03-31T08:00:24;4.27;;;2.13;;
14191;SDS011;7177;48.572;7.838;2023-03-31T08:02:51;7.23;;;2.10;;
14191;SDS011;7177;48.572;7.838;2023-03-31T08:05:17;4.97;;;1.70;;
14191;SDS011;7177;48.572;7.838;2023-03-31T08:07:44;4.90;;;2.00;;
14191;SDS011;7177;48.572;7.838;2023-03-31T08:10:13;3.03;;;1.83;;
14191;SDS011;7177;48.572;7.838;2023-03-31T08:12:43;3.10;;;1.97;;
14191;SDS011;7177;48.572;7.838;2023-03-31T08:15:09;3.57;;;2.10;;
14191;SDS011;7177;48.572;7.838;2023-03-31T08:17:35;4.27;;;1.80;;
14191;SDS011;7177;48.572;7.838;2023-03-31T08:20:01;3.97;;;1.97;;
14191;SDS011;7177;48.572;7.838;2023-03-31T08:22:30;3.33;;;2.00;;
14191;SDS011;7177;48.572;7.838;2023-03-31T08:24:56;5.83;;;2.10;;
14191;SDS011;7177;48.572;7.838;2023-03-31T08:27:21;5.30;;;1.80;;
14191;SDS011;7177;48.572;7.838;2023-03-31T08:29:47;5.37;;;2.10;;
14191;SDS011;7177;48.572;7.838;2023-03-31T08:32:13;4.13;;;1.60;;
14191;SDS011;7177;48.572;7.838;2023-03-31T08:34:39;6.90;;;2.30;;
14191;SDS011;7177;48.572;7.838;2023-03-31T08:37:06;3.73;;;1.80;;
14191;SDS011;7177;48.572;7.838;2023-03-31T08:39:33;4.83;;;1.73;;
14191;SDS011;7177;48.572;7.838;2023-03-31T08:42:10;7.70;;;2.50;;
14191;SDS011;7177;48.572;7.838;2023-03-31T08:44:53;5.30;;;2.03;;
14191;SDS011;7177;48.572;7.838;2023-03-31T08:47:22;11.43;;;2.73;;
14191;SDS011;7177;48.572;7.838;2023-03-31T08:49:51;12.43;;;3.17;;
14191;SDS011;7177;48.572;7.838;2023-03-31T08:52:21;9.90;;;2.67;;
14191;SDS011;7177;48.572;7.838;2023-03-31T08:54:51;10.37;;;2.80;;
14191;SDS011;7177;48.572;7.838;2023-03-31T08:57:23;6.43;;;2.50;;
14191;SDS011;7177;48.572;7.838;2023-03-31T08:59:53;12.73;;;2.40;;
14191;SDS011;7177;48.572;7.838;2023-03-31T09:02:26;8.77;;;2.47;;
14191;SDS011;7177;48.572;7.838;2023-03-31T09:08:10;12.37;;;2.47;;
14191;SDS011;7177;48.572;7.838;2023-03-31T09:10:52;7.10;;;2.40;;
14191;SDS011;7177;48.572;7.838;2023-03-31T09:16:07;9.33;;;2.20;;
14191;SDS011;7177;48.572;7.838;2023-03-31T09:18:38;10.00;;;3.00;;
14191;SDS011;7177;48.572;7.838;2023-03-31T09:26:44;9.33;;;2.47;;
14191;SDS011;7177;48.572;7.838;2023-03-31T09:31:53;6.50;;;2.20;;
14191;SDS011;7177;48.572;7.838;2023-03-31T09:34:26;4.97;;;2.37;;
14191;SDS011;7177;48.572;7.838;2023-03-31T09:36:55;7.30;;;2.20;;
14191;SDS011;7177;48.572;7.838;2023-03-31T09:39:20;8.07;;;2.00;;
14191;SDS011;7177;48.572;7.838;2023-03-31T09:41:47;4.77;;;1.90;;
14191;SDS011;7177;48.572;7.838;2023-03-31T09:44:36;6.13;;;2.27;;
14191;SDS011;7177;48.572;7.838;2023-03-31T09:47:03;6.30;;;2.37;;
14191;SDS011;7177;48.572;7.838;2023-03-31T09:49:41;9.37;;;2.53;;
14191;SDS011;7177;48.572;7.838;2023-03-31T09:52:29;7.00;;;2.20;;
14191;SDS011;7177;48.572;7.838;2023-03-31T09:55:00;5.03;;;2.17;;
14191;SDS011;7177;48.572;7.838;2023-03-31T09:57:28;11.37;;;2.63;;
14191;SDS011;7177;48.572;7.838;2023-03-31T10:00:12;7.30;;;2.63;;
14191;SDS011;7177;48.572;7.838;2023-03-31T10:02:49;11.27;;;2.80;;
14191;SDS011;7177;48.572;7.838;2023-03-31T10:10:34;5.30;;;1.73;;
14191;SDS011;7177;48.572;7.838;2023-03-31T10:13:00;4.23;;;1.70;;
14191;SDS011;7177;48.572;7.838;2023-03-31T10:15:35;5.10;;;1.73;;
14191;SDS011;7177;48.572;7.838;2023-03-31T10:18:02;3.20;;;1.30;;
14191;SDS011;7177;48.572;7.838;2023-03-31T10:20:33;3.97;;;1.20;;
14191;SDS011;7177;48.572;7.838;2023-03-31T10:23:03;1.63;;;1.03;;
14191;SDS011;7177;48.572;7.838;2023-03-31T10:25:42;3.27;;;1.40;;
14191;SDS011;7177;48.572;7.838;2023-03-31T10:28:10;1.47;;;0.90;;
14191;SDS011;7177;48.572;7.838;2023-03-31T10:30:39;2.23;;;1.10;;
14191;SDS011;7177;48.572;7.838;2023-03-31T10:33:20;3.43;;;1.10;;
14191;SDS011;7177;48.572;7.838;2023-03-31T10:35:58;4.27;;;1.40;;
14191;SDS011;7177;48.572;7.838;2023-03-31T10:38:38;1.80;;;0.93;;
14191;SDS011;7177;48.572;7.838;2023-03-31T10:41:09;4.23;;;1.27;;
14191;SDS011;7177;48.572;7.838;2023-03-31T10:46:08;3.17;;;1.40;;
14191;SDS011;7177;48.572;7.838;2023-03-31T10:48:35;4.23;;;1.63;;
14191;SDS011;7177;48.572;7.838;2023-03-31T10:51:05;2.43;;;1.03;;
14191;SDS011;7177;48.572;7.838;2023-03-31T10:53:43;1.77;;;1.10;;
14191;SDS011;7177;48.572;7.838;2023-03-31T11:01:55;3.13;;;1.00;;
14191;SDS011;7177;48.572;7.838;2023-03-31T11:04:37;2.07;;;1.20;;
14191;SDS011;7177;48.572;7.838;2023-03-31T11:12:43;2.13;;;0.83;;
14191;SDS011;7177;48.572;7.838;2023-03-31T11:17:57;3.90;;;1.00;;
14191;SDS011;7177;48.572;7.838;2023-03-31T11:23:19;2.77;;;1.10;;
14191;SDS011;7177;48.572;7.838;2023-03-31T11:25:49;2.23;;;0.90;;
14191;SDS011;7177;48.572;7.838;2023-03-31T11:31:01;4.57;;;1.10;;
14191;SDS011;7177;48.572;7.838;2023-03-31T11:42:00;3.13;;;1.53;;
14191;SDS011;7177;48.572;7.838;2023-03-31T11:44:30;2.30;;;1.20;;
14191;SDS011;7177;48.572;7.838;2023-03-31T11:47:12;2.80;;;1.27;;
14191;SDS011;7177;48.572;7.838;2023-03-31T11:49:47;3.43;;;2.10;;
14191;SDS011;7177;48.572;7.838;2023-03-31T11:52:29;4.60;;;2.00;;
14191;SDS011;7177;48.572;7.838;2023-03-31T11:55:05;5.27;;;1.93;;
14191;SDS011;7177;48.572;7.838;2023-03-31T11:57:46;5.10;;;1.70;;
14191;SDS011;7177;48.572;7.838;2023-03-31T12:00:20;4.30;;;1.67;;
14191;SDS011;7177;48.572;7.838;2023-03-31T12:03:22;2.73;;;1.43;;
14191;SDS011;7177;48.572;7.838;2023-03-31T12:06:02;7.33;;;2.23;;
14191;SDS011;7177;48.572;7.838;2023-03-31T12:11:23;5.30;;;2.07;;
14191;SDS011;7177;48.572;7.838;2023-03-31T12:16:58;4.53;;;1.57;;
14191;SDS011;7177;48.572;7.838;2023-03-31T12:19:51;7.53;;;2.30;;
14191;SDS011;7177;48.572;7.838;2023-03-31T12:22:24;8.97;;;2.43;;
14191;SDS011;7177;48.572;7.838;2023-03-31T12:24:55;6.30;;;1.70;;
14191;SDS011;7177;48.572;7.838;2023-03-31T12:27:36;6.23;;;1.90;;
14191;SDS011;7177;48.572;7.838;2023-03-31T12:32:42;5.10;;;1.83;;
14191;SDS011;7177;48.572;7.838;2023-03-31T12:35:19;6.00;;;2.17;;
14191;SDS011;7177;48.572;7.838;2023-03-31T12:37:59;7.90;;;2.07;;
14191;SDS011;7177;48.572;7.838;2023-03-31T12:40:42;6.33;;;1.70;;
14191;SDS011;7177;48.572;7.838;2023-03-31T12:57:41;5.00;;;1.80;;
14191;SDS011;7177;48.572;7.838;2023-03-31T13:02:34;3.80;;;1.37;;
14191;SDS011;7177;48.572;7.838;2023-03-31T13:05:00;3.00;;;1.17;;
14191;SDS011;7177;48.572;7.838;2023-03-31T13:08:01;2.73;;;1.40;;
14191;SDS011;7177;48.572;7.838;2023-03-31T13:10:32;1.63;;;1.20;;
14191;SDS011;7177;48.572;7.838;2023-03-31T13:15:28;3.50;;;1.40;;
14191;SDS011;7177;48.572;7.838;2023-03-31T13:18:04;1.57;;;1.37;;
14191;SDS011;7177;48.572;7.838;2023-03-31T13:20:32;8.00;;;1.47;;
14191;SDS011;7177;48.572;7.838;2023-03-31T13:23:16;2.03;;;1.10;;
14191;SDS011;7177;48.572;7.838;2023-03-31T13:25:56;2.53;;;1.10;;
14191;SDS011;7177;48.572;7.838;2023-03-31T13:28:24;1.73;;;1.00;;
14191;SDS011;7177;48.572;7.838;2023-03-31T13:31:04;4.50;;;1.33;;
14191;SDS011;7177;48.572;7.838;2023-03-31T13:45:09;2.87;;;1.20;;
14191;SDS011;7177;48.572;7.838;2023-03-31T13:48:08;4.13;;;1.60;;
14191;SDS011;7177;48.572;7.838;2023-03-31T13:51:09;5.23;;;1.60;;
14191;SDS011;7177;48.572;7.838;2023-03-31T13:56:24;5.03;;;1.50;;
14191;SDS011;7177;48.572;7.838;2023-03-31T14:04:39;6.63;;;1.47;;
14191;SDS011;7177;48.572;7.838;2023-03-31T14:07:16;3.30;;;1.20;;
14191;SDS011;7177;48.572;7.838;2023-03-31T14:09:45;2.97;;;1.10;;
14191;SDS011;7177;48.572;7.838;2023-03-31T14:12:20;4.07;;;1.50;;
14191;SDS011;7177;48.572;7.838;2023-03-31T14:14:57;3.90;;;1.70;;
14191;SDS011;7177;48.572;7.838;2023-03-31T14:17:25;1.70;;;1.20;;
14191;SDS011;7177;48.572;7.838;2023-03-31T14:20:05;2.47;;;1.07;;
14191;SDS011;7177;48.572;7.838;2023-03-31T14:23:01;4.63;;;1.53;;
14191;SDS011;7177;48.572;7.838;2023-03-31T14:28:35;3.33;;;1.67;;
14191;SDS011;7177;48.572;7.838;2023-03-31T14:31:18;4.70;;;1.43;;
14191;SDS011;7177;48.572;7.838;2023-03-31T14:33:53;2.60;;;1.30;;
14191;SDS011;7177;48.572;7.838;2023-03-31T14:36:46;5.33;;;1.60;;
14191;SDS011;7177;48.572;7.838;2023-03-31T14:39:23;5.07;;;1.50;;
14191;SDS011;7177;48.572;7.838;2023-03-31T14:41:52;3.23;;;1.43;;
14191;SDS011;7177;48.572;7.838;2023-03-31T14:44:20;4.43;;;1.73;;
14191;SDS011;7177;48.572;7.838;2023-03-31T14:46:49;3.50;;;1.47;;
14191;SDS011;7177;48.572;7.838;2023-03-31T14:52:22;7.03;;;1.93;;
14191;SDS011;7177;48.572;7.838;2023-03-31T14:54:48;4.13;;;1.47;;
14191;SDS011;7177;48.572;7.838;2023-03-31T14:57:22;3.33;;;1.40;;
14191;SDS011;7177;48.572;7.838;2023-03-31T14:59:54;6.73;;;2.00;;
14191;SDS011;7177;48.572;7.838;2023-03-31T15:02:33;3.57;;;1.40;;
14191;SDS011;7177;48.572;7.838;2023-03-31T15:05:04;3.70;;;1.70;;
14191;SDS011;7177;48.572;7.838;2023-03-31T15:07:33;4.70;;;1.40;;
14191;SDS011;7177;48.572;7.838;2023-03-31T15:10:00;4.73;;;1.40;;
14191;SDS011;7177;48.572;7.838;2023-03-31T15:12:27;11.27;;;2.47;;
14191;SDS011;7177;48.572;7.838;2023-03-31T15:14:54;7.37;;;1.90;;
14191;SDS011;7177;48.572;7.838;2023-03-31T15:17:29;2.83;;;1.30;;
14191;SDS011;7177;48.572;7.838;2023-03-31T15:20:00;5.70;;;1.23;;
14191;SDS011;7177;48.572;7.838;2023-03-31T15:22:45;5.67;;;1.03;;
14191;SDS011;7177;48.572;7.838;2023-03-31T15:25:12;2.00;;;1.30;;
14191;SDS011;7177;48.572;7.838;2023-03-31T15:27:42;3.30;;;1.10;;
14191;SDS011;7177;48.572;7.838;2023-03-31T15:30:15;1.27;;;0.90;;
14191;SDS011;7177;48.572;7.838;2023-03-31T15:32:44;2.10;;;1.13;;
14191;SDS011;7177;48.572;7.838;2023-03-31T15:35:23;3.13;;;1.23;;
14191;SDS011;7177;48.572;7.838;2023-03-31T15:37:52;3.30;;;1.20;;
14191;SDS011;7177;48.572;7.838;2023-03-31T15:40:30;1.90;;;1.30;;
14191;SDS011;7177;48.572;7.838;2023-03-31T15:43:05;4.77;;;1.47;;
14191;SDS011;7177;48.572;7.838;2023-03-31T15:45:46;2.87;;;1.67;;
14191;SDS011;7177;48.572;7.838;2023-03-31T15:48:15;5.43;;;1.47;;
14191;SDS011;7177;48.572;7.838;2023-03-31T15:51:01;4.43;;;1.27;;
14191;SDS011;7177;48.572;7.838;2023-03-31T15:53:51;2.77;;;1.40;;
14191;SDS011;7177;48.572;7.838;2023-03-31T15:56:31;5.17;;;1.60;;
14191;SDS011;7177;48.572;7.838;2023-03-31T15:59:20;3.07;;;1.60;;
14191;SDS011;7177;48.572;7.838;2023-03-31T16:01:47;4.73;;;1.97;;
14191;SDS011;7177;48.572;7.838;2023-03-31T16:04:13;3.57;;;1.50;;
14191;SDS011;7177;48.572;7.838;2023-03-31T16:09:10;2.57;;;1.53;;
14191;SDS011;7177;48.572;7.838;2023-03-31T16:11:56;4.37;;;1.60;;
14191;SDS011;7177;48.572;7.838;2023-03-31T16:14:27;4.03;;;1.70;;
14191;SDS011;7177;48.572;7.838;2023-03-31T16:17:06;4.77;;;1.60;;
14191;SDS011;7177;48.572;7.838;2023-03-31T16:19:38;4.90;;;1.57;;
14191;SDS011;7177;48.572;7.838;2023-03-31T16:22:10;5.63;;;1.83;;
14191;SDS011;7177;48.572;7.838;2023-03-31T16:24:39;3.57;;;1.90;;
14191;SDS011;7177;48.572;7.838;2023-03-31T16:27:05;3.93;;;1.80;;
14191;SDS011;7177;48.572;7.838;2023-03-31T16:29:33;2.37;;;1.47;;
14191;SDS011;7177;48.572;7.838;2023-03-31T16:34:58;5.97;;;1.63;;
14191;SDS011;7177;48.572;7.838;2023-03-31T16:37:23;5.20;;;1.80;;
14191;SDS011;7177;48.572;7.838;2023-03-31T16:39:49;5.27;;;2.10;;
14191;SDS011;7177;48.572;7.838;2023-03-31T16:42:15;3.77;;;1.87;;
14191;SDS011;7177;48.572;7.838;2023-03-31T16:44:40;6.20;;;2.10;;
14191;SDS011;7177;48.572;7.838;2023-03-31T16:47:06;4.17;;;1.70;;
14191;SDS011;7177;48.572;7.838;2023-03-31T16:49:31;3.27;;;1.80;;
14191;SDS011;7177;48.572;7.838;2023-03-31T16:51:57;6.33;;;1.97;;
14191;SDS011;7177;48.572;7.838;2023-03-31T16:54:22;8.17;;;2.37;;
14191;SDS011;7177;48.572;7.838;2023-03-31T16:56:48;5.47;;;2.03;;
14191;SDS011;7177;48.572;7.838;2023-03-31T16:59:14;7.07;;;2.00;;
14191;SDS011;7177;48.572;7.838;2023-03-31T17:01:39;5.37;;;1.90;;
14191;SDS011;7177;48.572;7.838;2023-03-31T17:04:05;8.43;;;1.80;;
14191;SDS011;7177;48.572;7.838;2023-03-31T17:06:31;5.50;;;1.63;;
14191;SDS011;7177;48.572;7.838;2023-03-31T17:08:57;4.03;;;1.43;;
14191;SDS011;7177;48.572;7.838;2023-03-31T17:11:22;3.40;;;1.40;;
14191;SDS011;7177;48.572;7.838;2023-03-31T17:13:48;5.17;;;1.60;;
14191;SDS011;7177;48.572;7.838;2023-03-31T17:16:14;5.57;;;1.90;;
14191;SDS011;7177;48.572;7.838;2023-03-31T17:18:41;7.03;;;2.00;;
14191;SDS011;7177;48.572;7.838;2023-03-31T17:21:08;4.80;;;2.03;;
14191;SDS011;7177;48.572;7.838;2023-03-31T17:23:36;3.50;;;1.50;;
14191;SDS011;7177;48.572;7.838;2023-03-31T17:26:03;8.23;;;2.17;;
14191;SDS011;7177;48.572;7.838;2023-03-31T17:28:30;2.93;;;1.50;;
14191;SDS011;7177;48.572;7.838;2023-03-31T17:30:56;4.57;;;1.80;;
14191;SDS011;7177;48.572;7.838;2023-03-31T17:33:22;4.43;;;1.40;;
14191;SDS011;7177;48.572;7.838;2023-03-31T17:35:48;2.57;;;1.30;;
14191;SDS011;7177;48.572;7.838;2023-03-31T17:38:14;5.77;;;1.50;;
14191;SDS011;7177;48.572;7.838;2023-03-31T17:40:41;3.53;;;1.53;;
14191;SDS011;7177;48.572;7.838;2023-03-31T17:43:07;5.70;;;1.70;;
14191;SDS011;7177;48.572;7.838;2023-03-31T17:45:32;3.70;;;1.40;;
14191;SDS011;7177;48.572;7.838;2023-03-31T17:47:58;4.60;;;1.80;;
14191;SDS011;7177;48.572;7.838;2023-03-31T17:50:25;4.03;;;1.70;;